createdAt,value
2022-08-03T00:00:58.237Z,96040.78
2022-08-03T00:06:03.966Z,96037.28
2022-08-03T00:11:08.078Z,96048.56
2022-08-03T00:16:13.351Z,96040.53
2022-08-03T00:21:16.338Z,96051.75
2022-08-03T00:26:19.236Z,96048.97
2022-08-03T00:31:42.220Z,96043.53
2022-08-03T00:36:46.290Z,96046.44
2022-08-03T00:41:49.176Z,96040.41
2022-08-03T00:46:53.779Z,96039.66
2022-08-03T00:51:56.681Z,96040.91
2022-08-03T00:57:00.560Z,96044.72
2022-08-03T01:02:05.055Z,96034.59
2022-08-03T01:07:12.512Z,96036.28
2022-08-03T01:12:22.569Z,96042.13
2022-08-03T01:17:33.043Z,96028.06
2022-08-03T01:22:53.068Z,96031.41
2022-08-03T01:28:04.112Z,96024.28
2022-08-03T01:33:16.774Z,96018.38
2022-08-03T01:38:25.617Z,96017.22
2022-08-03T01:44:27.653Z,96008.13
2022-08-03T01:48:57.299Z,96022.88
2022-08-03T01:54:01.753Z,96019.72
2022-08-03T01:59:07.137Z,96015.72
2022-08-03T02:04:14.182Z,96022.72
2022-08-03T02:09:21.076Z,96033.31
2022-08-03T02:14:25.000Z,96033.16
2022-08-03T02:19:35.258Z,96031.69
2022-08-03T02:24:38.876Z,96026.25
2022-08-03T02:29:43.234Z,96019.53
2022-08-03T02:34:50.046Z,96017.97
2022-08-03T02:39:57.591Z,96021.78
2022-08-03T02:45:03.964Z,96025.03
2022-08-03T02:50:10.562Z,96022.41
2022-08-03T02:55:14.998Z,96026.13
2022-08-03T03:00:27.465Z,96019.22
2022-08-03T03:05:55.414Z,96026.13
2022-08-03T03:10:56.383Z,96020.84
2022-08-03T03:16:03.636Z,96025.38
2022-08-03T03:21:10.885Z,96018.47
2022-08-03T03:26:15.686Z,96024.59
2022-08-03T03:31:18.678Z,96022.38
2022-08-03T03:36:22.910Z,96014.84
2022-08-03T03:41:26.199Z,96016.84
2022-08-03T03:46:29.194Z,96016.88
2022-08-03T03:51:33.595Z,96011.63
2022-08-03T03:56:36.427Z,96026.13
2022-08-03T04:01:39.726Z,96026.75
2022-08-03T04:07:01.563Z,96020.22
2022-08-03T04:12:05.762Z,96023.66
2022-08-03T04:17:10.741Z,96015.72
2022-08-03T04:22:18.847Z,96017.78
2022-08-03T04:27:24.324Z,96020.22
2022-08-03T04:32:28.742Z,96020.41
2022-08-03T04:37:39.343Z,96040.56
2022-08-03T04:42:44.094Z,96041.78
2022-08-03T04:47:47.370Z,96046.88
2022-08-03T04:52:51.631Z,96041.38
2022-08-03T04:57:54.445Z,96058.50
2022-08-03T05:02:57.694Z,96059.91
2022-08-03T05:08:01.891Z,96068.66
2022-08-03T05:13:11.943Z,96073.75
2022-08-03T05:18:14.762Z,96079.66
2022-08-03T05:23:18.975Z,96079.88
2022-08-03T05:28:21.864Z,96089.84
2022-08-03T05:33:24.674Z,96088.97
2022-08-03T05:38:34.117Z,96086.31
2022-08-03T05:43:37.970Z,96092.56
2022-08-03T05:48:41.256Z,96089.91
2022-08-03T05:53:45.939Z,96096.78
2022-08-03T05:58:48.767Z,96098.72
2022-08-03T06:03:52.327Z,96096.88
2022-08-03T06:08:56.495Z,96099.22
2022-08-03T06:13:59.300Z,96096.69
2022-08-03T06:19:02.856Z,96096.19
2022-08-03T06:24:07.650Z,96096.09
2022-08-03T06:29:10.600Z,96108.53
2022-08-03T06:34:34.351Z,96100.63
2022-08-03T06:39:37.815Z,96099.88
2022-08-03T06:44:40.606Z,96111.16
2022-08-03T06:49:43.516Z,96100.31
2022-08-03T06:54:51.395Z,96109.69
2022-08-03T07:00:10.827Z,96122.97
2022-08-03T07:05:14.969Z,96116.78
2022-08-03T07:10:19.159Z,96112.78
2022-08-03T07:15:54.397Z,96116.16
2022-08-03T07:20:44.813Z,96119.09
2022-08-03T07:25:49.013Z,96119.56
2022-08-03T07:30:51.766Z,96130.16
2022-08-03T07:35:54.703Z,96129.47
2022-08-03T07:40:58.986Z,96123.81
2022-08-03T07:46:01.832Z,96131.28
2022-08-03T07:51:05.687Z,96122.81
2022-08-03T07:56:11.273Z,96124.22
2022-08-03T08:01:15.200Z,96121.06
2022-08-03T08:06:19.206Z,96124.06
2022-08-03T08:11:23.424Z,96123.22
2022-08-03T08:16:26.360Z,96121.25
2022-08-03T08:22:01.922Z,96128.72
2022-08-03T08:26:53.454Z,96122.34
2022-08-03T08:31:56.331Z,96116.72
2022-08-03T08:36:59.783Z,96110.66
2022-08-03T08:42:04.071Z,96101.41
2022-08-03T08:47:09.185Z,96100.63
2022-08-03T08:52:29.488Z,96098.09
2022-08-03T08:57:43.092Z,96098.84
2022-08-03T09:02:47.198Z,96105.69
2022-08-03T09:07:50.484Z,96100.03
2022-08-03T09:12:54.771Z,96062.19
2022-08-03T09:17:59.362Z,96105.78
2022-08-03T09:23:20.235Z,96108.63
2022-08-03T09:29:00.434Z,96106.41
2022-08-03T09:34:01.082Z,96103.97
2022-08-03T09:39:06.182Z,96098.56
2022-08-03T09:44:24.079Z,96101.44
2022-08-03T09:49:29.255Z,96100.00
2022-08-03T09:54:34.250Z,96091.50
2022-08-03T09:59:41.208Z,96087.88
2022-08-03T10:04:48.905Z,96076.06
2022-08-03T10:09:57.510Z,96082.72
2022-08-03T10:15:01.725Z,96079.94
2022-08-03T10:20:06.774Z,96073.44
2022-08-03T10:25:12.628Z,96067.88
2022-08-03T10:30:18.083Z,96060.19
2022-08-03T10:35:23.372Z,96064.50
2022-08-03T10:45:53.015Z,96043.09
2022-08-03T10:50:56.551Z,96048.25
2022-08-03T10:56:18.198Z,96039.44
2022-08-03T11:02:01.295Z,96025.00
2022-08-03T11:07:23.658Z,96024.00
2022-08-03T11:12:31.557Z,96020.81
2022-08-03T11:17:46.449Z,96008.72
2022-08-03T11:23:01.060Z,96003.06
2022-08-03T11:28:28.821Z,96000.41
2022-08-03T11:33:33.185Z,96000.13
2022-08-03T11:38:36.071Z,95993.63
2022-08-03T11:43:46.356Z,95982.00
2022-08-03T11:48:52.620Z,95990.56
2022-08-03T11:53:56.474Z,95969.53
2022-08-03T11:59:19.865Z,95972.41
2022-08-03T12:04:24.576Z,95972.56
2022-08-03T12:09:27.437Z,95974.97
2022-08-03T12:14:48.893Z,95967.22
2022-08-03T12:19:54.979Z,95965.25
2022-08-03T12:24:57.851Z,95940.47
2022-08-03T12:30:01.978Z,95951.00
2022-08-03T12:35:07.368Z,95942.75
2022-08-03T12:40:17.825Z,95944.13
2022-08-03T12:45:24.638Z,95946.34
2022-08-03T12:50:33.323Z,95942.34
2022-08-03T12:55:57.615Z,95924.63
2022-08-03T13:00:59.862Z,95932.75
2022-08-03T13:06:12.612Z,95925.91
2022-08-03T13:11:53.648Z,95928.50
2022-08-03T13:16:50.443Z,95917.75
2022-08-03T13:22:03.859Z,95917.84
2022-08-03T13:28:02.087Z,95918.72
2022-08-03T13:32:30.622Z,95914.06
2022-08-03T13:37:34.706Z,95912.81
2022-08-03T13:42:38.974Z,95903.03
2022-08-03T13:47:41.943Z,95901.31
2022-08-03T13:52:46.389Z,95901.00
2022-08-03T13:58:02.295Z,95893.09
2022-08-03T14:03:14.718Z,95898.78
2022-08-03T14:08:19.226Z,95876.72
2022-08-03T14:13:22.545Z,95880.03
2022-08-03T14:18:29.080Z,95876.84
2022-08-03T14:23:38.677Z,95875.59
2022-08-03T14:28:41.956Z,95861.22
2022-08-03T14:33:44.787Z,95860.53
2022-08-03T14:38:49.178Z,95857.25
2022-08-03T14:44:01.634Z,95851.16
2022-08-03T14:50:39.030Z,95858.53
2022-08-03T14:54:30.904Z,95843.91
2022-08-03T14:59:55.741Z,95843.72
2022-08-03T15:04:56.761Z,95843.06
2022-08-03T15:10:02.422Z,95839.09
2022-08-03T15:15:05.936Z,95840.88
2022-08-03T15:20:27.843Z,95840.28
2022-08-03T15:26:31.582Z,95819.47
2022-08-03T15:30:56.806Z,95825.94
2022-08-03T15:36:00.002Z,95823.22
2022-08-03T15:41:04.271Z,95808.72
2022-08-03T15:51:30.512Z,95808.59
2022-08-03T15:56:34.947Z,95807.81
2022-08-03T16:01:37.907Z,95809.03
2022-08-03T16:06:42.082Z,95796.06
2022-08-03T16:11:47.836Z,95807.94
2022-08-03T16:16:50.689Z,95797.69
2022-08-03T16:21:53.532Z,95795.75
2022-08-03T16:26:57.978Z,95800.88
2022-08-03T16:32:09.292Z,95798.91
2022-08-03T16:37:37.010Z,95785.47
2022-08-03T16:42:38.290Z,95789.03
2022-08-03T16:47:41.270Z,95784.72
2022-08-03T16:52:47.027Z,95783.47
2022-08-03T16:57:58.372Z,95775.97
2022-08-03T17:03:19.107Z,95784.28
2022-08-03T17:08:26.831Z,95788.19
2022-08-03T17:13:39.955Z,95782.69
2022-08-03T17:18:50.518Z,95781.91
2022-08-03T17:23:58.334Z,95782.72
2022-08-03T17:29:11.223Z,95773.00
2022-08-03T17:34:15.487Z,95786.66
2022-08-03T17:39:35.861Z,95780.66
2022-08-03T17:44:47.070Z,95780.63
2022-08-03T17:49:50.417Z,95786.63
2022-08-03T17:55:57.228Z,95783.13
2022-08-03T18:00:45.439Z,95800.69
2022-08-03T18:06:10.692Z,95796.03
2022-08-03T18:11:15.208Z,95807.19
2022-08-03T18:16:25.583Z,95801.38
2022-08-03T18:22:03.783Z,95808.19
2022-08-03T18:26:52.855Z,95803.84
2022-08-03T18:32:02.646Z,95802.09
2022-08-03T18:37:07.803Z,95800.56
2022-08-03T18:42:18.974Z,95806.13
2022-08-03T18:47:53.109Z,95800.50
2022-08-03T18:53:03.587Z,95799.59
2022-08-03T18:58:18.028Z,95812.00
2022-08-03T19:03:41.438Z,95798.25
2022-08-03T19:08:50.173Z,95815.16
2022-08-03T19:13:57.772Z,95808.66
2022-08-03T19:19:03.132Z,95805.81
2022-08-03T19:24:10.319Z,95804.41
2022-08-03T19:29:15.057Z,95815.81
2022-08-03T19:34:20.405Z,95820.19
2022-08-03T19:39:27.462Z,95813.50
2022-08-03T19:44:32.602Z,95826.31
2022-08-03T19:50:04.777Z,95832.69
2022-08-03T19:55:06.784Z,95841.19
2022-08-03T20:00:12.565Z,95835.19
2022-08-03T20:05:18.715Z,95842.34
2022-08-03T20:10:22.035Z,95847.47
2022-08-03T20:15:31.783Z,95850.28
2022-08-03T20:20:38.574Z,95851.19
2022-08-03T20:25:57.091Z,95846.41
2022-08-03T20:31:02.193Z,95852.31
2022-08-03T20:36:06.693Z,95861.47
2022-08-03T20:41:09.587Z,95859.59
2022-08-03T20:46:32.716Z,95860.16
2022-08-03T20:51:50.604Z,95857.19
2022-08-03T20:56:57.576Z,95866.19
2022-08-03T21:02:00.871Z,95875.16
2022-08-03T21:07:16.751Z,95876.91
2022-08-03T21:12:26.985Z,95867.28
2022-08-03T21:17:41.691Z,95868.97
2022-08-03T21:22:50.257Z,95883.34
2022-08-03T21:27:53.510Z,95892.97
2022-08-03T21:32:57.995Z,95890.22
2022-08-03T21:38:20.742Z,95890.66
2022-08-03T21:43:32.894Z,95889.78
2022-08-03T21:48:38.364Z,95881.19
2022-08-03T21:54:03.670Z,95889.41
2022-08-03T21:59:15.290Z,95891.41
2022-08-03T22:04:50.124Z,95899.56
2022-08-03T22:09:51.362Z,95904.66
2022-08-03T22:15:00.907Z,95900.72
2022-08-03T22:20:06.828Z,95879.53
2022-08-03T22:25:17.029Z,95909.44
2022-08-03T22:30:20.725Z,95908.50
2022-08-03T22:35:26.248Z,95915.94
2022-08-03T22:40:30.749Z,95908.13
2022-08-03T22:46:06.113Z,95913.75
2022-08-03T22:50:59.236Z,95908.94
2022-08-03T22:56:04.698Z,95915.22
2022-08-03T23:01:09.480Z,95923.94
2022-08-03T23:06:12.667Z,95935.69
2022-08-03T23:11:19.016Z,95941.41
2022-08-03T23:16:29.346Z,95950.16
2022-08-03T23:21:53.580Z,95967.22
2022-08-03T23:26:57.614Z,95961.34
2022-08-03T23:32:02.685Z,95959.00
2022-08-03T23:37:06.740Z,95962.84
2022-08-03T23:42:12.352Z,95945.72
2022-08-03T23:47:15.340Z,95963.06
2022-08-03T23:52:28.047Z,95964.69
2022-08-03T23:57:40.770Z,95953.81
